createdAt,value
2023-05-14T00:02:13.859Z,89.93
2023-05-14T00:05:16.850Z,89.58
2023-05-14T00:08:19.632Z,89.32
2023-05-14T00:11:22.623Z,89.96
2023-05-14T00:14:25.360Z,90.07
2023-05-14T00:17:28.298Z,90.02
2023-05-14T00:20:31.008Z,90.12
2023-05-14T00:23:33.813Z,90.29
2023-05-14T00:26:36.575Z,90.38
2023-05-14T00:29:39.324Z,90.31
2023-05-14T00:32:42.136Z,89.87
2023-05-14T00:35:44.845Z,89.79
2023-05-14T00:38:47.595Z,89.65
2023-05-14T00:41:50.356Z,89.13
2023-05-14T00:44:53.360Z,89.06
2023-05-14T00:47:56.197Z,89.50
2023-05-14T00:50:59.424Z,89.37
2023-05-14T00:54:03.046Z,88.93
2023-05-14T00:57:06.962Z,88.86
2023-05-14T01:00:10.190Z,88.79
2023-05-14T01:03:13.048Z,88.86
2023-05-14T01:06:18.566Z,89.35
2023-05-14T01:09:58.095Z,88.98
2023-05-14T01:13:06.825Z,88.69
2023-05-14T01:16:13.849Z,88.95
2023-05-14T01:19:29.797Z,89.24
2023-05-14T01:22:32.540Z,89.43
2023-05-14T01:25:35.506Z,89.36
2023-05-14T01:28:39.043Z,89.24
2023-05-14T01:31:44.552Z,89.72
2023-05-14T01:34:49.005Z,89.75
2023-05-14T01:37:53.624Z,89.97
2023-05-14T01:40:57.711Z,90.03
2023-05-14T01:44:00.615Z,90.25
2023-05-14T01:47:03.711Z,90.38
2023-05-14T01:50:06.949Z,89.89
2023-05-14T01:53:10.136Z,90.14
2023-05-14T01:56:12.878Z,90.00
2023-05-14T01:59:16.229Z,89.40
2023-05-14T02:02:19.147Z,88.96
2023-05-14T02:05:21.911Z,89.21
2023-05-14T02:08:24.653Z,89.42
2023-05-14T02:11:27.447Z,88.77
2023-05-14T02:14:30.233Z,88.64
2023-05-14T02:17:33.127Z,88.51
2023-05-14T02:20:35.861Z,88.36
2023-05-14T02:23:41.913Z,88.60
2023-05-14T02:26:45.153Z,88.90
2023-05-14T02:29:47.894Z,88.17
2023-05-14T02:32:50.986Z,88.02
2023-05-14T02:35:54.266Z,88.38
2023-05-14T02:38:59.577Z,87.98
2023-05-14T02:42:02.310Z,88.62
2023-05-14T02:45:05.645Z,88.16
2023-05-14T02:48:08.723Z,88.01
2023-05-14T02:51:11.853Z,88.69
2023-05-14T02:54:16.558Z,88.29
2023-05-14T02:57:19.352Z,88.51
2023-05-14T03:00:22.229Z,88.48
2023-05-14T03:03:25.554Z,88.65
2023-05-14T03:06:28.579Z,89.21
2023-05-14T03:09:31.292Z,89.15
2023-05-14T03:12:34.058Z,89.21
2023-05-14T03:15:36.830Z,88.77
2023-05-14T03:18:39.590Z,88.80
2023-05-14T03:21:45.151Z,88.48
2023-05-14T03:24:48.017Z,88.34
2023-05-14T03:27:50.736Z,88.76
2023-05-14T03:30:53.640Z,89.04
2023-05-14T03:33:56.396Z,88.60
2023-05-14T03:36:59.415Z,88.69
2023-05-14T03:40:02.208Z,89.43
2023-05-14T03:43:05.044Z,89.23
2023-05-14T03:46:08.033Z,89.55
2023-05-14T03:49:10.953Z,89.32
2023-05-14T03:52:13.755Z,89.16
2023-05-14T03:55:20.414Z,89.42
2023-05-14T03:58:23.109Z,89.84
2023-05-14T04:01:25.899Z,89.25
2023-05-14T04:04:28.641Z,89.21
2023-05-14T04:07:31.491Z,88.05
2023-05-14T04:10:34.391Z,89.08
2023-05-14T04:13:37.249Z,88.81
2023-05-14T04:16:40.102Z,88.51
2023-05-14T04:19:42.945Z,88.18
2023-05-14T04:22:45.783Z,88.48
2023-05-14T04:25:48.531Z,88.27
2023-05-14T04:28:51.287Z,88.66
2023-05-14T04:31:54.049Z,88.16
2023-05-14T04:34:56.739Z,88.23
2023-05-14T04:37:59.498Z,88.38
2023-05-14T04:41:02.324Z,88.66
2023-05-14T04:44:05.507Z,88.75
2023-05-14T04:47:08.249Z,89.09
2023-05-14T04:50:11.097Z,89.02
2023-05-14T04:53:13.996Z,89.71
2023-05-14T04:56:16.691Z,89.42
2023-05-14T04:59:19.365Z,89.11
2023-05-14T05:02:22.281Z,89.72
2023-05-14T05:05:25.003Z,89.96
2023-05-14T05:08:27.709Z,88.95
2023-05-14T05:11:30.503Z,89.66
2023-05-14T05:14:33.222Z,89.56
2023-05-14T05:17:36.038Z,89.83
2023-05-14T05:20:38.795Z,89.98
2023-05-14T05:23:41.544Z,89.56
2023-05-14T05:26:44.353Z,89.80
2023-05-14T05:29:47.066Z,89.96
2023-05-14T05:32:49.930Z,89.93
2023-05-14T05:35:52.749Z,90.28
2023-05-14T05:38:56.137Z,90.30
2023-05-14T05:41:58.918Z,89.99
2023-05-14T05:45:01.652Z,90.31
2023-05-14T05:48:04.658Z,88.99
2023-05-14T05:51:07.492Z,89.49
2023-05-14T05:54:10.260Z,89.49
2023-05-14T05:57:13.014Z,89.42
2023-05-14T06:00:17.131Z,89.63
2023-05-14T06:03:19.912Z,89.27
2023-05-14T06:06:22.872Z,89.09
2023-05-14T06:09:25.687Z,88.37
2023-05-14T06:12:28.441Z,87.79
2023-05-14T06:15:31.359Z,87.69
2023-05-14T06:18:34.163Z,86.44
2023-05-14T06:21:36.933Z,86.24
2023-05-14T06:24:39.652Z,85.70
2023-05-14T06:27:42.820Z,86.23
2023-05-14T06:30:45.529Z,85.92
2023-05-14T06:33:48.280Z,86.03
2023-05-14T06:36:50.961Z,85.88
2023-05-14T06:39:54.406Z,85.30
2023-05-14T06:42:58.467Z,85.29
2023-05-14T06:46:01.460Z,84.83
2023-05-14T06:49:04.353Z,84.10
2023-05-14T06:52:07.457Z,84.79
2023-05-14T06:55:10.703Z,84.49
2023-05-14T06:58:13.376Z,83.87
2023-05-14T07:01:17.620Z,83.88
2023-05-14T07:04:20.454Z,84.07
2023-05-14T07:07:24.437Z,84.39
2023-05-14T07:10:27.419Z,84.42
2023-05-14T07:13:30.161Z,84.73
2023-05-14T07:16:32.906Z,85.17
2023-05-14T07:19:35.658Z,85.07
2023-05-14T07:22:38.389Z,85.75
2023-05-14T07:25:41.243Z,86.09
2023-05-14T07:28:43.989Z,86.08
2023-05-14T07:31:46.863Z,86.71
2023-05-14T07:34:49.794Z,86.93
2023-05-14T07:37:53.843Z,87.81
2023-05-14T07:40:56.651Z,87.51
2023-05-14T07:43:59.380Z,87.54
2023-05-14T07:47:02.125Z,87.56
2023-05-14T07:50:05.236Z,87.10
2023-05-14T07:53:08.219Z,88.05
2023-05-14T07:56:10.962Z,87.78
2023-05-14T07:59:13.726Z,87.50
2023-05-14T08:02:17.070Z,88.16
2023-05-14T08:05:20.071Z,88.15
2023-05-14T08:08:23.263Z,88.02
2023-05-14T08:11:26.329Z,88.58
2023-05-14T08:14:29.169Z,88.40
2023-05-14T08:17:31.932Z,88.62
2023-05-14T08:20:34.716Z,88.26
2023-05-14T08:23:37.389Z,89.12
2023-05-14T08:26:40.093Z,88.72
2023-05-14T08:29:42.890Z,89.11
2023-05-14T08:32:45.879Z,88.57
2023-05-14T08:35:50.927Z,88.59
2023-05-14T08:38:53.637Z,88.41
2023-05-14T08:41:58.022Z,88.64
2023-05-14T08:45:02.577Z,89.18
2023-05-14T08:48:09.347Z,89.42
2023-05-14T08:51:12.887Z,89.04
2023-05-14T08:54:18.059Z,88.74
2023-05-14T08:57:21.657Z,89.03
2023-05-14T09:00:25.050Z,88.25
2023-05-14T09:03:29.039Z,87.39
2023-05-14T09:06:33.066Z,88.19
2023-05-14T09:09:35.983Z,88.20
2023-05-14T09:12:38.659Z,88.97
2023-05-14T09:15:41.779Z,88.31
2023-05-14T09:18:45.879Z,89.27
2023-05-14T09:21:49.832Z,88.94
2023-05-14T09:25:11.192Z,89.36
2023-05-14T09:28:18.915Z,88.70
2023-05-14T09:31:21.933Z,89.59
2023-05-14T09:34:25.889Z,89.19
2023-05-14T09:37:28.805Z,88.73
2023-05-14T09:40:31.520Z,88.73
2023-05-14T09:43:34.293Z,89.02
2023-05-14T09:46:37.003Z,89.10
2023-05-14T09:49:40.311Z,89.78
2023-05-14T09:52:43.034Z,89.65
2023-05-14T09:55:46.396Z,89.74
2023-05-14T09:58:49.642Z,90.00
2023-05-14T10:01:53.050Z,89.05
2023-05-14T10:05:00.981Z,89.58
2023-05-14T10:08:09.061Z,89.35
2023-05-14T10:11:33.663Z,89.94
2023-05-14T10:14:41.514Z,90.27
2023-05-14T10:17:50.292Z,90.03
2023-05-14T10:21:04.120Z,90.07
2023-05-14T10:24:08.421Z,90.09
2023-05-14T10:27:11.396Z,89.62
2023-05-14T10:30:14.178Z,89.95
2023-05-14T10:33:18.694Z,89.82
2023-05-14T10:36:22.467Z,89.28
2023-05-14T10:39:46.060Z,89.50
2023-05-14T10:42:48.870Z,89.72
2023-05-14T10:45:52.176Z,88.90
2023-05-14T10:48:54.949Z,88.86
2023-05-14T10:51:57.850Z,88.95
2023-05-14T10:55:03.929Z,89.41
2023-05-14T10:58:07.774Z,89.93
2023-05-14T11:01:12.384Z,89.93
2023-05-14T11:04:24.257Z,90.08
2023-05-14T11:07:35.481Z,90.23
2023-05-14T11:10:39.580Z,90.68
2023-05-14T11:13:43.077Z,91.09
2023-05-14T11:16:47.293Z,91.37
2023-05-14T11:19:51.142Z,90.87
2023-05-14T11:22:53.970Z,91.01
2023-05-14T11:25:57.111Z,91.29
2023-05-14T11:29:00.213Z,91.35
2023-05-14T11:32:06.322Z,90.96
2023-05-14T11:35:09.376Z,90.75
2023-05-14T11:38:19.678Z,90.79
2023-05-14T11:41:23.288Z,90.73
2023-05-14T11:44:26.489Z,91.02
2023-05-14T11:47:30.012Z,91.09
2023-05-14T11:50:36.822Z,91.31
2023-05-14T11:53:39.591Z,91.77
2023-05-14T11:56:42.261Z,91.41
2023-05-14T11:59:45.711Z,91.19
2023-05-14T12:02:50.059Z,91.18
2023-05-14T12:06:00.254Z,91.50
2023-05-14T12:09:05.613Z,91.46
2023-05-14T12:12:12.931Z,91.66
2023-05-14T12:15:19.255Z,91.78
2023-05-14T12:18:25.014Z,92.36
2023-05-14T12:21:29.344Z,91.71
2023-05-14T12:24:32.118Z,91.38
2023-05-14T12:27:37.904Z,91.92
2023-05-14T12:30:41.397Z,91.18
2023-05-14T12:33:44.069Z,91.63
2023-05-14T12:36:46.740Z,91.82
2023-05-14T12:39:49.510Z,92.04
2023-05-14T12:42:53.285Z,91.98
2023-05-14T12:45:57.194Z,91.91
2023-05-14T12:49:00.247Z,91.78
2023-05-14T12:52:17.396Z,91.13
2023-05-14T12:55:25.931Z,91.13
2023-05-14T12:58:28.672Z,90.54
2023-05-14T13:01:31.453Z,90.77
2023-05-14T13:04:34.230Z,90.66
2023-05-14T13:07:37.069Z,90.49
2023-05-14T13:10:39.761Z,90.52
2023-05-14T13:13:42.461Z,90.75
2023-05-14T13:16:45.288Z,90.79
2023-05-14T13:19:48.033Z,90.97
2023-05-14T13:22:50.823Z,91.33
2023-05-14T13:25:53.515Z,90.56
2023-05-14T13:28:56.422Z,90.55
2023-05-14T13:31:59.146Z,89.91
2023-05-14T13:35:01.931Z,89.28
2023-05-14T13:38:04.697Z,89.11
2023-05-14T13:41:08.463Z,88.97
2023-05-14T13:44:11.227Z,88.34
2023-05-14T13:47:13.986Z,88.90
2023-05-14T13:50:16.729Z,88.31
2023-05-14T13:53:20.769Z,88.09
2023-05-14T13:56:23.469Z,88.45
2023-05-14T13:59:26.404Z,88.21
2023-05-14T14:02:29.160Z,88.01
2023-05-14T14:05:32.098Z,87.88
2023-05-14T14:08:34.879Z,87.68
2023-05-14T14:11:37.651Z,88.73
2023-05-14T14:14:40.426Z,89.24
2023-05-14T14:17:43.228Z,90.16
2023-05-14T14:20:46.154Z,90.25
2023-05-14T14:23:49.098Z,90.53
2023-05-14T14:26:52.484Z,90.63
2023-05-14T14:29:56.881Z,90.76
2023-05-14T14:33:01.367Z,90.74
2023-05-14T14:36:04.583Z,90.45
2023-05-14T14:39:07.342Z,90.45
2023-05-14T14:42:10.142Z,90.81
2023-05-14T14:45:13.023Z,90.79
2023-05-14T14:48:37.559Z,91.23
2023-05-14T14:51:40.956Z,91.64
2023-05-14T14:54:43.708Z,91.76
2023-05-14T14:57:46.356Z,91.32
2023-05-14T15:00:54.071Z,90.73
2023-05-14T15:03:56.837Z,91.41
2023-05-14T15:06:59.897Z,91.65
2023-05-14T15:10:02.742Z,91.26
2023-05-14T15:13:06.401Z,91.76
2023-05-14T15:16:09.281Z,91.61
2023-05-14T15:19:12.009Z,92.08
2023-05-14T15:22:14.833Z,92.04
2023-05-14T15:25:17.643Z,92.21
2023-05-14T15:28:20.360Z,91.82
2023-05-14T15:31:23.151Z,91.75
2023-05-14T15:34:26.229Z,92.06
2023-05-14T15:37:37.626Z,91.81
2023-05-14T15:40:40.888Z,91.94
2023-05-14T15:43:43.670Z,92.04
2023-05-14T15:46:46.572Z,92.47
2023-05-14T15:49:50.651Z,92.39
2023-05-14T15:52:53.925Z,92.25
2023-05-14T15:55:56.728Z,91.59
2023-05-14T15:58:59.455Z,92.03
2023-05-14T16:02:02.439Z,91.55
2023-05-14T16:05:05.798Z,91.02
2023-05-14T16:08:08.494Z,90.66
2023-05-14T16:11:11.182Z,90.12
2023-05-14T16:14:13.967Z,89.23
2023-05-14T16:17:16.710Z,88.55
2023-05-14T16:20:19.538Z,89.35
2023-05-14T16:23:22.214Z,89.59
2023-05-14T16:26:26.321Z,89.73
2023-05-14T16:29:29.141Z,88.95
2023-05-14T16:32:31.895Z,89.77
2023-05-14T16:35:34.720Z,90.24
2023-05-14T16:38:44.572Z,90.02
2023-05-14T16:41:55.327Z,91.01
2023-05-14T16:44:58.042Z,92.16
2023-05-14T16:48:01.586Z,91.64
2023-05-14T16:51:04.483Z,91.84
2023-05-14T16:54:07.184Z,91.93
2023-05-14T16:57:09.919Z,92.18
2023-05-14T17:00:13.280Z,92.01
2023-05-14T17:03:15.950Z,91.92
2023-05-14T17:06:19.200Z,91.77
2023-05-14T17:09:22.186Z,91.98
2023-05-14T17:12:24.869Z,92.07
2023-05-14T17:15:27.618Z,92.16
2023-05-14T17:18:30.732Z,92.35
2023-05-14T17:21:33.651Z,92.86
2023-05-14T17:24:36.667Z,93.21
2023-05-14T17:27:39.381Z,92.95
2023-05-14T17:30:42.124Z,92.99
2023-05-14T17:33:44.846Z,93.32
2023-05-14T17:36:47.567Z,93.41
2023-05-14T17:39:50.844Z,93.42
2023-05-14T17:42:53.562Z,93.34
2023-05-14T17:45:56.374Z,93.64
2023-05-14T17:48:59.228Z,93.78
2023-05-14T17:52:02.344Z,93.47
2023-05-14T17:55:05.701Z,93.44
2023-05-14T17:58:08.463Z,93.37
2023-05-14T18:01:11.738Z,93.70
2023-05-14T18:04:15.370Z,94.01
2023-05-14T18:07:19.322Z,94.20
2023-05-14T18:10:21.990Z,94.45
2023-05-14T18:13:24.943Z,94.41
2023-05-14T18:16:28.345Z,94.59
2023-05-14T18:19:31.433Z,94.83
2023-05-14T18:22:34.245Z,94.52
2023-05-14T18:25:37.892Z,94.77
2023-05-14T18:28:40.869Z,94.63
2023-05-14T18:31:43.994Z,95.06
2023-05-14T18:34:46.914Z,95.31
2023-05-14T18:37:49.633Z,94.93
2023-05-14T18:40:52.354Z,94.61
2023-05-14T18:43:55.251Z,94.79
2023-05-14T18:46:59.570Z,94.56
2023-05-14T18:50:04.971Z,94.73
2023-05-14T18:53:08.559Z,94.04
2023-05-14T18:56:11.447Z,93.42
2023-05-14T18:59:14.397Z,93.80
2023-05-14T19:02:17.396Z,95.01
2023-05-14T19:05:20.447Z,95.84
2023-05-14T19:08:23.474Z,96.36
2023-05-14T19:11:26.326Z,95.68
2023-05-14T19:14:29.472Z,94.86
2023-05-14T19:17:32.979Z,93.32
2023-05-14T19:20:35.867Z,93.56
2023-05-14T19:23:39.500Z,94.27
2023-05-14T19:26:42.320Z,96.09
2023-05-14T19:29:45.098Z,97.00
2023-05-14T19:32:47.837Z,97.79
2023-05-14T19:35:51.181Z,97.86
2023-05-14T19:38:53.876Z,98.82
2023-05-14T19:41:56.606Z,99.00
2023-05-14T19:44:59.331Z,99.43
2023-05-14T19:48:02.312Z,99.97
2023-05-14T19:51:05.156Z,100.00
2023-05-14T19:54:08.210Z,100.00
2023-05-14T19:57:11.248Z,99.85
2023-05-14T20:00:14.281Z,99.20
2023-05-14T20:03:17.358Z,98.87
2023-05-14T20:06:20.058Z,98.69
2023-05-14T20:09:23.137Z,98.82
2023-05-14T20:12:27.786Z,99.21
2023-05-14T20:15:31.293Z,98.95
2023-05-14T20:18:34.146Z,98.76
2023-05-14T20:21:36.960Z,98.19
2023-05-14T20:24:41.268Z,98.12
2023-05-14T20:27:44.205Z,98.77
2023-05-14T20:30:47.106Z,99.30
2023-05-14T20:33:50.039Z,99.32
2023-05-14T20:36:52.888Z,99.65
2023-05-14T20:39:55.945Z,99.13
2023-05-14T20:42:58.665Z,98.88
2023-05-14T20:46:01.498Z,98.77
2023-05-14T20:49:04.408Z,98.28
2023-05-14T20:52:07.180Z,98.21
2023-05-14T20:55:10.129Z,98.32
2023-05-14T20:58:12.839Z,97.90
2023-05-14T21:01:15.650Z,97.61
2023-05-14T21:04:18.814Z,97.42
2023-05-14T21:07:21.771Z,97.61
2023-05-14T21:10:24.775Z,97.52
2023-05-14T21:13:27.710Z,97.97
2023-05-14T21:16:31.319Z,97.70
2023-05-14T21:19:34.080Z,96.85
2023-05-14T21:22:36.756Z,97.30
2023-05-14T21:25:39.471Z,97.42
2023-05-14T21:28:42.301Z,97.57
2023-05-14T21:31:45.130Z,97.47
2023-05-14T21:34:47.952Z,97.13
2023-05-14T21:37:51.338Z,97.53
2023-05-14T21:40:54.006Z,97.50
2023-05-14T21:43:56.740Z,97.50
2023-05-14T21:46:59.747Z,98.10
2023-05-14T21:50:02.598Z,98.05
2023-05-14T21:53:05.338Z,97.67
2023-05-14T21:56:08.373Z,97.79
2023-05-14T21:59:11.300Z,97.78
2023-05-14T22:02:14.089Z,98.65
2023-05-14T22:05:17.022Z,98.56
2023-05-14T22:08:19.700Z,98.43
2023-05-14T22:11:22.598Z,98.85
2023-05-14T22:14:26.781Z,98.87
2023-05-14T22:17:29.473Z,99.00
2023-05-14T22:20:33.238Z,98.98
2023-05-14T22:23:36.254Z,98.72
2023-05-14T22:26:38.937Z,97.47
2023-05-14T22:29:41.720Z,97.13
2023-05-14T22:32:44.551Z,97.64
2023-05-14T22:35:47.346Z,97.75
2023-05-14T22:38:50.012Z,98.48
2023-05-14T22:41:55.346Z,98.11
2023-05-14T22:44:58.061Z,97.57
2023-05-14T22:48:00.920Z,97.75
2023-05-14T22:51:03.720Z,97.73
2023-05-14T22:54:06.921Z,97.98
2023-05-14T22:57:09.620Z,97.70
2023-05-14T23:00:13.074Z,97.58
2023-05-14T23:03:15.875Z,97.78
2023-05-14T23:06:18.712Z,98.34
2023-05-14T23:09:21.461Z,98.42
2023-05-14T23:12:24.211Z,98.67
2023-05-14T23:15:27.314Z,99.16
2023-05-14T23:18:31.017Z,98.84
2023-05-14T23:21:33.809Z,98.26
2023-05-14T23:24:36.657Z,97.54
2023-05-14T23:27:39.585Z,98.97
2023-05-14T23:30:42.524Z,99.69
2023-05-14T23:33:45.300Z,100.00
2023-05-14T23:36:48.418Z,99.76
2023-05-14T23:39:51.565Z,100.00
2023-05-14T23:42:54.343Z,99.35
2023-05-14T23:45:57.144Z,99.93
2023-05-14T23:49:01.453Z,100.00
2023-05-14T23:52:04.384Z,100.00
2023-05-14T23:55:07.351Z,100.00
2023-05-14T23:58:10.369Z,100.00
